Time;durP1;ratioP1;P1;durP2;ratioP2;P2;SDS_P1;SDS_P2;PMS_P1;PMS_P2;Temp;Humidity;BMP_temperature;BMP_pressure;BME280_temperature;BME280_humidity;BME280_pressure;Samples;Min_cycle;Max_cycle;Signal;HPM_P1;HPM_P2
2023/03/14 00:01:10;;;;;;;1.60;1.50;;;;;;;;;;5115461;28;21020;-72
2023/03/14 00:03:37;;;;;;;0.87;0.87;;;;;;;;;;5115779;27;20476;-72
2023/03/14 00:06:04;;;;;;;4.50;0.90;;;;;;;;;;5115464;28;20588;-72
2023/03/14 00:08:32;;;;;;;1.20;1.10;;;;;;;;;;5115385;28;20536;-72
2023/03/14 00:10:58;;;;;;;0.90;0.80;;;;;;;;;;5115477;28;20627;-72
2023/03/14 00:13:26;;;;;;;1.10;1.00;;;;;;;;;;5115658;28;20491;-71
2023/03/14 00:15:53;;;;;;;1.43;1.17;;;;;;;;;;5115250;28;20999;-72
2023/03/14 00:18:22;;;;;;;1.27;0.90;;;;;;;;;;5115175;28;21065;-72
2023/03/14 00:20:49;;;;;;;1.83;1.00;;;;;;;;;;5115166;28;20503;-72
2023/03/14 00:23:16;;;;;;;2.07;1.03;;;;;;;;;;5114806;28;20493;-71
2023/03/14 00:25:43;;;;;;;1.07;1.00;;;;;;;;;;5115299;28;20457;-72
2023/03/14 00:28:10;;;;;;;1.17;1.07;;;;;;;;;;5115088;28;20478;-72
2023/03/14 00:30:38;;;;;;;1.17;1.00;;;;;;;;;;5114962;28;20455;-72
2023/03/14 00:33:05;;;;;;;1.13;1.03;;;;;;;;;;5115012;28;20545;-72
2023/03/14 00:35:33;;;;;;;1.03;0.83;;;;;;;;;;5115000;28;20541;-72
2023/03/14 00:38:00;;;;;;;2.10;1.07;;;;;;;;;;5114831;28;20891;-71
2023/03/14 00:40:27;;;;;;;0.83;0.83;;;;;;;;;;5114850;28;20446;-71
2023/03/14 00:42:54;;;;;;;1.30;1.00;;;;;;;;;;5114662;28;20937;-72
2023/03/14 00:45:21;;;;;;;1.27;1.03;;;;;;;;;;5114855;28;20525;-72
2023/03/14 00:47:48;;;;;;;3.50;1.30;;;;;;;;;;5114803;28;20901;-72
2023/03/14 00:50:15;;;;;;;2.30;1.27;;;;;;;;;;5114543;28;20446;-71
2023/03/14 00:52:43;;;;;;;1.10;1.00;;;;;;;;;;5114458;28;20892;-71
2023/03/14 00:55:10;;;;;;;1.10;1.00;;;;;;;;;;5114702;28;20476;-71
2023/03/14 00:57:37;;;;;;;1.00;1.00;;;;;;;;;;5114556;28;20548;-72
2023/03/14 01:00:07;;;;;;;2.00;1.80;;;;;;;;;;5114528;28;20473;-72
2023/03/14 01:02:34;;;;;;;1.00;0.90;;;;;;;;;;5114498;28;20561;-72
2023/03/14 01:05:01;;;;;;;1.07;0.90;;;;;;;;;;5114251;28;20534;-71
2023/03/14 01:07:28;;;;;;;1.43;1.03;;;;;;;;;;5114144;28;20836;-71
2023/03/14 01:09:56;;;;;;;1.13;0.90;;;;;;;;;;5113903;28;20533;-72
2023/03/14 01:12:23;;;;;;;1.10;0.90;;;;;;;;;;5114029;28;20951;-72
2023/03/14 01:14:50;;;;;;;1.53;0.97;;;;;;;;;;5113862;28;20443;-72
2023/03/14 01:17:17;;;;;;;1.37;1.13;;;;;;;;;;5113613;28;20565;-72
2023/03/14 01:19:44;;;;;;;1.07;1.00;;;;;;;;;;5113684;28;20458;-72
2023/03/14 01:22:11;;;;;;;1.40;0.93;;;;;;;;;;5113992;28;20442;-71
2023/03/14 01:24:38;;;;;;;1.40;0.90;;;;;;;;;;5113832;28;20450;-71
2023/03/14 01:27:06;;;;;;;0.93;0.83;;;;;;;;;;5113755;28;20485;-71
2023/03/14 01:29:33;;;;;;;3.17;1.00;;;;;;;;;;5113628;28;20515;-72
2023/03/14 01:32:00;;;;;;;1.63;1.17;;;;;;;;;;5113535;28;20456;-72
2023/03/14 01:34:27;;;;;;;1.10;1.00;;;;;;;;;;5113533;28;20472;-71
2023/03/14 01:36:54;;;;;;;1.33;0.90;;;;;;;;;;5113742;28;20450;-71
2023/03/14 01:39:21;;;;;;;1.20;1.10;;;;;;;;;;5113846;28;20482;-71
2023/03/14 01:41:47;;;;;;;1.10;1.00;;;;;;;;;;5113595;28;20933;-72
2023/03/14 01:44:16;;;;;;;0.90;0.80;;;;;;;;;;5113682;28;20446;-72
2023/03/14 01:46:43;;;;;;;1.50;0.80;;;;;;;;;;5113476;28;20469;-71
2023/03/14 01:49:19;;;;;;;3.00;0.97;;;;;;;;;;5113866;28;20850;-71
2023/03/14 01:51:48;;;;;;;1.30;1.17;;;;;;;;;;5113481;28;21017;-71
2023/03/14 01:54:18;;;;;;;1.43;1.10;;;;;;;;;;5113571;28;20450;-72
2023/03/14 01:56:46;;;;;;;1.30;1.20;;;;;;;;;;5113495;28;20900;-72
2023/03/14 01:59:13;;;;;;;1.30;1.03;;;;;;;;;;5113214;28;20447;-71
2023/03/14 02:01:44;;;;;;;2.20;1.37;;;;;;;;;;5113489;28;20881;-71
2023/03/14 02:04:11;;;;;;;1.27;1.00;;;;;;;;;;5113552;28;20456;-72
2023/03/14 02:06:43;;;;;;;1.30;1.20;;;;;;;;;;5113236;28;20496;-72
2023/03/14 02:09:10;;;;;;;1.00;1.00;;;;;;;;;;5113243;28;20816;-72
2023/03/14 02:11:37;;;;;;;1.10;1.00;;;;;;;;;;5112818;28;20453;-71
2023/03/14 02:14:05;;;;;;;1.30;1.00;;;;;;;;;;5113155;28;20542;-72
2023/03/14 02:16:32;;;;;;;1.20;1.10;;;;;;;;;;5112841;28;20829;-70
2023/03/14 02:19:00;;;;;;;1.63;1.00;;;;;;;;;;5113194;28;20532;-72
2023/03/14 02:21:36;;;;;;;1.07;0.97;;;;;;;;;;5113151;28;20446;-72
2023/03/14 02:24:09;;;;;;;1.17;1.00;;;;;;;;;;5113320;28;20455;-72
2023/03/14 02:26:38;;;;;;;1.03;0.80;;;;;;;;;;5113027;28;20969;-72
2023/03/14 02:29:06;;;;;;;1.73;0.80;;;;;;;;;;5113139;28;20881;-72
2023/03/14 02:31:34;;;;;;;2.70;0.80;;;;;;;;;;5112909;28;20445;-72
2023/03/14 02:34:01;;;;;;;1.27;0.90;;;;;;;;;;5112900;28;20447;-72
2023/03/14 02:36:28;;;;;;;1.13;0.90;;;;;;;;;;5112826;28;20460;-72
2023/03/14 02:38:59;;;;;;;1.03;0.93;;;;;;;;;;5112741;28;21012;-71
2023/03/14 02:41:26;;;;;;;1.77;1.00;;;;;;;;;;5112735;28;21004;-72
2023/03/14 02:43:53;;;;;;;1.47;1.03;;;;;;;;;;5112985;28;20441;-72
2023/03/14 02:46:22;;;;;;;1.27;1.00;;;;;;;;;;5115009;28;20448;-71
2023/03/14 02:48:51;;;;;;;1.10;0.80;;;;;;;;;;5117026;28;20885;-71
2023/03/14 02:51:18;;;;;;;1.10;1.00;;;;;;;;;;5116834;28;21024;-71
2023/03/14 02:53:45;;;;;;;1.10;1.00;;;;;;;;;;5117164;28;20450;-71
2023/03/14 02:56:12;;;;;;;1.03;0.80;;;;;;;;;;5117166;28;20450;-72
2023/03/14 02:58:39;;;;;;;1.10;0.97;;;;;;;;;;5116990;28;20968;-72
2023/03/14 03:01:07;;;;;;;0.97;0.87;;;;;;;;;;5116903;28;20445;-72
2023/03/14 03:03:35;;;;;;;0.83;0.73;;;;;;;;;;5116885;28;20453;-71
2023/03/14 03:06:02;;;;;;;0.90;0.73;;;;;;;;;;5116835;28;20450;-72
2023/03/14 03:08:30;;;;;;;0.90;0.70;;;;;;;;;;5116860;28;20576;-72
2023/03/14 03:10:57;;;;;;;1.40;1.00;;;;;;;;;;5116755;28;20743;-72
2023/03/14 03:13:24;;;;;;;1.10;1.00;;;;;;;;;;5116538;28;20800;-72
2023/03/14 03:15:51;;;;;;;1.37;0.80;;;;;;;;;;5116371;28;20832;-72
2023/03/14 03:18:18;;;;;;;0.90;0.80;;;;;;;;;;5116081;28;21047;-71
2023/03/14 03:20:46;;;;;;;1.00;0.80;;;;;;;;;;5116460;28;20446;-72
2023/03/14 03:23:13;;;;;;;1.47;0.70;;;;;;;;;;5116250;28;21052;-72
2023/03/14 03:25:40;;;;;;;0.87;0.87;;;;;;;;;;5116270;28;20481;-72
2023/03/14 03:28:08;;;;;;;1.00;0.90;;;;;;;;;;5116191;28;20480;-72
2023/03/14 03:30:38;;;;;;;0.77;0.70;;;;;;;;;;5116037;28;20450;-72
2023/03/14 03:33:05;;;;;;;1.10;0.83;;;;;;;;;;5116198;28;20454;-72
2023/03/14 03:35:32;;;;;;;0.80;0.70;;;;;;;;;;5116428;28;20532;-71
2023/03/14 03:38:00;;;;;;;1.73;1.10;;;;;;;;;;5116153;28;20453;-72
2023/03/14 03:40:27;;;;;;;1.13;0.93;;;;;;;;;;5116019;28;20905;-72
2023/03/14 03:42:54;;;;;;;1.00;0.90;;;;;;;;;;5115812;28;20540;-72
2023/03/14 03:45:21;;;;;;;3.17;0.80;;;;;;;;;;5115752;28;20460;-71
2023/03/14 03:47:48;;;;;;;1.17;1.07;;;;;;;;;;5115635;28;21000;-72
2023/03/14 03:50:15;;;;;;;0.80;0.80;;;;;;;;;;5115826;28;20453;-71
2023/03/14 03:52:42;;;;;;;0.80;0.80;;;;;;;;;;5115880;28;20453;-72
2023/03/14 03:55:10;;;;;;;0.80;0.80;;;;;;;;;;5115796;28;20449;-72
2023/03/14 03:57:37;;;;;;;0.97;0.83;;;;;;;;;;5114789;28;20534;-72
2023/03/14 04:00:05;;;;;;;0.80;0.80;;;;;;;;;;5115356;28;20482;-71
2023/03/14 04:02:32;;;;;;;1.17;0.70;;;;;;;;;;5115640;28;20816;-71
2023/03/14 04:04:59;;;;;;;1.30;0.80;;;;;;;;;;5115510;28;20441;-72
2023/03/14 04:07:26;;;;;;;1.03;0.90;;;;;;;;;;5115695;28;20470;-72
2023/03/14 04:09:53;;;;;;;0.70;0.70;;;;;;;;;;5115388;28;20445;-71
2023/03/14 04:12:21;;;;;;;1.10;0.70;;;;;;;;;;5115370;28;20514;-72
2023/03/14 04:14:48;;;;;;;1.87;0.80;;;;;;;;;;5115607;28;20625;-72
2023/03/14 04:17:15;;;;;;;1.00;0.77;;;;;;;;;;5115514;28;20502;-71
2023/03/14 04:19:42;;;;;;;0.87;0.80;;;;;;;;;;5115508;28;20446;-71
2023/03/14 04:22:09;;;;;;;0.90;0.77;;;;;;;;;;5115232;28;20472;-72
2023/03/14 04:24:36;;;;;;;2.13;1.10;;;;;;;;;;5115131;28;20858;-72
2023/03/14 04:27:03;;;;;;;0.80;0.80;;;;;;;;;;5115004;28;20446;-71
2023/03/14 04:29:31;;;;;;;0.80;0.80;;;;;;;;;;5115140;28;20825;-71
2023/03/14 04:31:58;;;;;;;0.97;0.90;;;;;;;;;;5115174;28;20889;-72
2023/03/14 04:34:25;;;;;;;0.90;0.80;;;;;;;;;;5115174;28;20450;-71
2023/03/14 04:36:51;;;;;;;1.03;0.80;;;;;;;;;;5115192;28;20493;-72
2023/03/14 04:39:18;;;;;;;1.17;1.07;;;;;;;;;;5114908;28;21047;-72
2023/03/14 04:41:45;;;;;;;1.33;1.23;;;;;;;;;;5114811;28;20450;-72
2023/03/14 04:44:12;;;;;;;0.80;0.80;;;;;;;;;;5115466;28;20457;-71
2023/03/14 04:46:41;;;;;;;1.47;0.80;;;;;;;;;;5114993;28;20446;-72
2023/03/14 04:49:07;;;;;;;2.30;0.90;;;;;;;;;;5114890;28;20486;-72
2023/03/14 04:51:34;;;;;;;1.13;0.90;;;;;;;;;;5114751;28;20785;-72
2023/03/14 04:54:01;;;;;;;0.80;0.77;;;;;;;;;;5114709;28;20541;-71
2023/03/14 04:56:28;;;;;;;0.80;0.77;;;;;;;;;;5114968;28;20472;-71
2023/03/14 04:58:55;;;;;;;1.53;0.90;;;;;;;;;;5114784;28;20537;-72
2023/03/14 05:01:22;;;;;;;1.53;0.80;;;;;;;;;;5114469;28;20452;-72
2023/03/14 05:03:50;;;;;;;0.80;0.73;;;;;;;;;;5114703;28;20541;-72
2023/03/14 05:06:17;;;;;;;0.80;0.80;;;;;;;;;;5114582;28;20890;-72
2023/03/14 05:08:44;;;;;;;2.43;1.00;;;;;;;;;;5113825;28;20496;-71
2023/03/14 05:11:12;;;;;;;0.80;0.80;;;;;;;;;;5114104;28;20442;-72
2023/03/14 05:13:39;;;;;;;2.50;0.90;;;;;;;;;;5114780;28;20808;-71
2023/03/14 05:16:06;;;;;;;1.70;0.90;;;;;;;;;;5114733;28;20533;-71
2023/03/14 05:18:33;;;;;;;1.27;0.90;;;;;;;;;;5114407;28;20474;-71
2023/03/14 05:21:01;;;;;;;0.90;0.70;;;;;;;;;;5114249;28;20536;-72
2023/03/14 05:23:28;;;;;;;2.20;0.80;;;;;;;;;;5114199;28;20551;-72
2023/03/14 05:25:55;;;;;;;1.10;1.00;;;;;;;;;;5114233;28;20499;-71
2023/03/14 05:28:22;;;;;;;1.23;0.80;;;;;;;;;;5114137;28;20482;-71
2023/03/14 05:30:49;;;;;;;1.90;0.87;;;;;;;;;;5113941;28;20447;-71
2023/03/14 05:33:16;;;;;;;1.13;1.03;;;;;;;;;;5114109;28;20544;-71
2023/03/14 05:35:43;;;;;;;0.90;0.80;;;;;;;;;;5114003;28;20951;-71
2023/03/14 05:38:12;;;;;;;1.23;0.80;;;;;;;;;;5114098;28;20454;-71
2023/03/14 05:40:38;;;;;;;1.57;0.80;;;;;;;;;;5113957;28;20446;-71
2023/03/14 05:43:07;;;;;;;1.00;0.80;;;;;;;;;;5113931;28;20846;-71
2023/03/14 05:45:34;;;;;;;1.47;0.90;;;;;;;;;;5113809;28;20460;-71
2023/03/14 05:48:01;;;;;;;3.53;1.00;;;;;;;;;;5113618;28;20837;-71
2023/03/14 05:50:28;;;;;;;1.87;0.90;;;;;;;;;;5113524;28;20623;-71
2023/03/14 05:52:55;;;;;;;2.03;1.40;;;;;;;;;;5113616;28;20477;-70
2023/03/14 05:55:23;;;;;;;1.33;0.87;;;;;;;;;;5113703;28;20442;-71
2023/03/14 05:57:50;;;;;;;1.00;0.80;;;;;;;;;;5113622;28;20446;-71
2023/03/14 06:00:18;;;;;;;5.93;1.07;;;;;;;;;;5113455;28;20450;-72
2023/03/14 06:02:44;;;;;;;1.00;0.90;;;;;;;;;;5113521;28;20446;-71
2023/03/14 06:05:11;;;;;;;1.77;0.80;;;;;;;;;;5113292;28;20456;-71
2023/03/14 06:07:38;;;;;;;2.20;0.90;;;;;;;;;;5113466;28;20629;-72
2023/03/14 06:10:06;;;;;;;2.13;0.90;;;;;;;;;;5113208;28;20457;-71
2023/03/14 06:12:34;;;;;;;0.90;0.90;;;;;;;;;;5113275;28;20978;-72
2023/03/14 06:15:01;;;;;;;0.80;0.80;;;;;;;;;;5113344;28;20442;-72
2023/03/14 06:17:28;;;;;;;1.33;1.03;;;;;;;;;;5112819;28;20920;-71
2023/03/14 06:19:55;;;;;;;2.30;0.83;;;;;;;;;;5113139;28;20536;-72
2023/03/14 06:22:22;;;;;;;0.93;0.80;;;;;;;;;;5113082;28;20446;-72
2023/03/14 06:24:49;;;;;;;2.40;1.37;;;;;;;;;;5113216;28;20540;-72
2023/03/14 06:27:15;;;;;;;3.83;1.27;;;;;;;;;;5113276;28;20446;-72
2023/03/14 06:29:53;;;;;;;4.80;0.90;;;;;;;;;;5112769;28;20832;-72
2023/03/14 06:32:20;;;;;;;1.07;0.83;;;;;;;;;;5112963;28;20460;-71
2023/03/14 06:34:47;;;;;;;2.07;0.80;;;;;;;;;;5113177;28;20449;-72
2023/03/14 06:37:14;;;;;;;3.13;0.90;;;;;;;;;;5113023;28;20945;-72
2023/03/14 06:39:41;;;;;;;1.47;1.00;;;;;;;;;;5113035;28;20600;-72
2023/03/14 06:42:08;;;;;;;0.93;0.73;;;;;;;;;;5113175;28;20481;-72
2023/03/14 06:44:35;;;;;;;2.60;1.37;;;;;;;;;;5113029;28;20446;-71
2023/03/14 06:47:03;;;;;;;3.10;1.00;;;;;;;;;;5113079;28;20435;-71
2023/03/14 06:49:30;;;;;;;2.03;1.00;;;;;;;;;;5112751;28;20482;-72
2023/03/14 06:51:57;;;;;;;1.23;1.10;;;;;;;;;;5113054;28;20446;-71
2023/03/14 06:54:24;;;;;;;2.73;0.80;;;;;;;;;;5112802;28;20450;-71
2023/03/14 06:56:51;;;;;;;2.50;1.10;;;;;;;;;;5112792;28;20449;-72
2023/03/14 06:59:18;;;;;;;5.80;1.00;;;;;;;;;;5112686;28;20443;-71
2023/03/14 07:01:45;;;;;;;2.37;1.17;;;;;;;;;;5112948;28;20449;-71
2023/03/14 07:04:13;;;;;;;6.17;1.10;;;;;;;;;;5112808;28;20935;-72
2023/03/14 07:06:44;;;;;;;2.90;1.10;;;;;;;;;;5112723;28;20982;-71
2023/03/14 07:09:10;;;;;;;2.37;0.90;;;;;;;;;;5112609;28;20482;-72
2023/03/14 07:11:37;;;;;;;5.23;1.10;;;;;;;;;;5112444;28;20541;-72
2023/03/14 07:14:04;;;;;;;2.70;1.00;;;;;;;;;;5112879;28;20880;-72
2023/03/14 07:16:32;;;;;;;2.10;1.10;;;;;;;;;;5112363;28;20468;-71
2023/03/14 07:18:59;;;;;;;1.10;1.00;;;;;;;;;;5112768;28;20475;-72
2023/03/14 07:21:32;;;;;;;2.10;1.03;;;;;;;;;;5112687;28;20855;-72
2023/03/14 07:23:59;;;;;;;2.17;1.50;;;;;;;;;;5112515;28;20503;-71
2023/03/14 07:26:26;;;;;;;3.57;1.33;;;;;;;;;;5112612;28;20932;-71
2023/03/14 07:28:53;;;;;;;2.20;0.97;;;;;;;;;;5112617;28;20495;-71
2023/03/14 07:31:20;;;;;;;5.10;1.30;;;;;;;;;;5112238;28;20452;-72
2023/03/14 07:33:47;;;;;;;4.23;1.13;;;;;;;;;;5115039;28;20972;-71
2023/03/14 07:36:14;;;;;;;2.40;1.03;;;;;;;;;;5116047;28;20789;-72
2023/03/14 07:38:42;;;;;;;1.80;0.90;;;;;;;;;;5116219;28;20456;-71
2023/03/14 07:41:09;;;;;;;1.97;0.90;;;;;;;;;;5115938;28;20448;-72
2023/03/14 07:43:36;;;;;;;3.50;1.00;;;;;;;;;;5116139;28;20540;-71
2023/03/14 07:46:03;;;;;;;8.30;1.30;;;;;;;;;;5116154;28;20813;-71
2023/03/14 07:48:30;;;;;;;2.27;1.20;;;;;;;;;;5115945;28;20472;-72
2023/03/14 07:50:57;;;;;;;4.10;1.00;;;;;;;;;;5115836;28;21090;-72
2023/03/14 07:53:25;;;;;;;1.77;1.20;;;;;;;;;;5115869;28;20446;-72
2023/03/14 07:55:53;;;;;;;1.93;1.30;;;;;;;;;;5115966;28;20541;-71
2023/03/14 07:58:21;;;;;;;4.20;0.93;;;;;;;;;;5115922;28;20527;-72
2023/03/14 08:00:48;;;;;;;3.73;1.00;;;;;;;;;;5115667;28;20458;-72
2023/03/14 08:03:18;;;;;;;1.70;1.20;;;;;;;;;;5115555;28;20460;-72
2023/03/14 08:05:45;;;;;;;1.23;0.87;;;;;;;;;;5115600;28;20446;-71
2023/03/14 08:08:12;;;;;;;4.10;1.30;;;;;;;;;;5115685;28;20862;-72
2023/03/14 08:10:39;;;;;;;1.40;1.10;;;;;;;;;;5115674;28;20536;-71
2023/03/14 08:13:07;;;;;;;2.73;1.40;;;;;;;;;;5115588;28;21009;-69
2023/03/14 08:15:34;;;;;;;2.57;1.20;;;;;;;;;;5114646;28;20455;-69
2023/03/14 08:18:01;;;;;;;3.73;1.30;;;;;;;;;;5094871;28;20901;-66
2023/03/14 08:20:29;;;;;;;1.63;0.87;;;;;;;;;;5094896;28;20447;-65
2023/03/14 08:22:57;;;;;;;2.60;1.20;;;;;;;;;;5095151;28;20933;-66
2023/03/14 08:25:24;;;;;;;2.30;0.83;;;;;;;;;;5095025;28;20466;-64
2023/03/14 08:27:51;;;;;;;3.47;1.33;;;;;;;;;;5095037;28;20890;-62
2023/03/14 08:30:20;;;;;;;2.40;1.10;;;;;;;;;;5094705;28;20489;-64
2023/03/14 08:32:47;;;;;;;1.87;1.27;;;;;;;;;;5094646;28;20504;-75
2023/03/14 08:35:14;;;;;;;2.90;1.10;;;;;;;;;;5095096;28;20879;-64
2023/03/14 08:37:41;;;;;;;3.33;1.27;;;;;;;;;;5094601;28;20531;-64
2023/03/14 08:40:11;;;;;;;1.40;0.97;;;;;;;;;;5094730;28;20542;-67
2023/03/14 08:42:38;;;;;;;2.17;1.10;;;;;;;;;;5094699;28;20449;-68
2023/03/14 08:45:06;;;;;;;4.40;1.87;;;;;;;;;;5094333;28;20447;-64
2023/03/14 08:47:34;;;;;;;2.50;1.17;;;;;;;;;;5094509;28;20457;-60
2023/03/14 08:50:01;;;;;;;3.73;1.60;;;;;;;;;;5094499;28;20837;-65
2023/03/14 08:52:28;;;;;;;2.73;1.23;;;;;;;;;;5094401;28;20450;-68
2023/03/14 08:54:55;;;;;;;1.97;1.30;;;;;;;;;;5094245;28;20950;-67
2023/03/14 08:57:27;;;;;;;3.30;1.37;;;;;;;;;;5094350;28;20508;-72
2023/03/14 08:59:54;;;;;;;2.67;1.40;;;;;;;;;;5093911;28;20448;-69
2023/03/14 09:02:20;;;;;;;1.57;1.20;;;;;;;;;;5094384;28;20577;-68
2023/03/14 09:04:49;;;;;;;2.50;2.17;;;;;;;;;;5094270;28;20806;-66
2023/03/14 09:07:16;;;;;;;3.47;1.17;;;;;;;;;;5094164;28;20527;-70
2023/03/14 09:09:43;;;;;;;4.13;1.40;;;;;;;;;;5093889;28;20821;-64
2023/03/14 09:12:09;;;;;;;2.47;1.30;;;;;;;;;;5094032;28;20479;-69
2023/03/14 09:14:36;;;;;;;3.97;1.30;;;;;;;;;;5093789;28;20451;-66
2023/03/14 09:17:04;;;;;;;4.83;1.37;;;;;;;;;;5093741;28;20481;-62
2023/03/14 09:19:30;;;;;;;3.00;1.10;;;;;;;;;;5093836;28;20457;-67
2023/03/14 09:21:59;;;;;;;2.03;1.20;;;;;;;;;;5093976;28;20497;-65
2023/03/14 09:24:26;;;;;;;1.50;1.00;;;;;;;;;;5093809;28;20837;-63
2023/03/14 09:26:52;;;;;;;2.30;1.30;;;;;;;;;;5093782;28;20539;-62
2023/03/14 09:29:19;;;;;;;1.73;1.30;;;;;;;;;;5093440;28;20884;-65
2023/03/14 09:31:46;;;;;;;3.40;1.10;;;;;;;;;;5093711;28;20452;-66
2023/03/14 09:34:13;;;;;;;4.40;1.47;;;;;;;;;;5093714;28;20452;-67
2023/03/14 09:36:40;;;;;;;2.90;1.17;;;;;;;;;;5094150;28;20447;-79
2023/03/14 09:39:08;;;;;;;6.53;1.57;;;;;;;;;;5093706;28;20551;-71
2023/03/14 09:41:38;;;;;;;4.07;1.13;;;;;;;;;;5093360;28;20553;-75
2023/03/14 09:44:06;;;;;;;2.40;0.93;;;;;;;;;;5093725;28;20457;-70
2023/03/14 09:46:35;;;;;;;3.10;1.20;;;;;;;;;;5093569;28;20451;-73
2023/03/14 09:49:03;;;;;;;5.17;1.40;;;;;;;;;;5093449;28;20445;-73
2023/03/14 09:51:31;;;;;;;1.87;1.57;;;;;;;;;;5093300;28;21029;-68
2023/03/14 09:53:58;;;;;;;3.27;1.50;;;;;;;;;;5093659;28;20453;-67
2023/03/14 09:56:27;;;;;;;2.40;1.10;;;;;;;;;;5092587;28;20941;-64
2023/03/14 09:58:56;;;;;;;4.40;1.20;;;;;;;;;;5092674;28;20860;-66
2023/03/14 10:01:26;;;;;;;2.10;1.23;;;;;;;;;;5092844;28;20452;-71
2023/03/14 10:03:55;;;;;;;2.90;1.30;;;;;;;;;;5093114;28;20788;-69
2023/03/14 10:06:23;;;;;;;2.60;1.10;;;;;;;;;;5092899;28;20458;-71
2023/03/14 10:08:50;;;;;;;3.20;1.30;;;;;;;;;;5092749;28;20540;-74
2023/03/14 10:11:17;;;;;;;2.67;1.42;;;;;;;;;;5092041;28;20473;-65
2023/03/14 10:14:03;;;;;;;3.60;1.20;;;;;;;;;;5093319;28;20197;-63
2023/03/14 10:16:31;;;;;;;2.97;1.10;;;;;;;;;;5092719;28;20646;-66
2023/03/14 10:19:03;;;;;;;4.20;1.00;;;;;;;;;;5093024;28;20444;-67
2023/03/14 10:21:33;;;;;;;3.10;1.03;;;;;;;;;;5092952;28;20444;-66
2023/03/14 10:24:08;;;;;;;1.80;1.00;;;;;;;;;;5093017;28;20448;-65
2023/03/14 10:26:36;;;;;;;1.63;1.13;;;;;;;;;;5092822;28;20448;-66
2023/03/14 10:29:09;;;;;;;4.80;1.10;;;;;;;;;;5092880;28;20444;-65
2023/03/14 10:31:47;;;;;;;3.47;1.30;;;;;;;;;;5092647;28;20455;-69
2023/03/14 10:34:17;;;;;;;2.40;1.17;;;;;;;;;;5092937;28;20970;-68
2023/03/14 10:36:44;;;;;;;1.27;0.70;;;;;;;;;;5092948;28;20801;-69
2023/03/14 10:39:24;;;;;;;1.00;0.80;;;;;;;;;;5092459;28;20452;-68
2023/03/14 10:41:52;;;;;;;1.20;0.77;;;;;;;;;;5092716;28;20536;-69
2023/03/14 10:44:22;;;;;;;3.07;0.80;;;;;;;;;;5092810;28;20816;-69
2023/03/14 10:46:57;;;;;;;1.00;0.90;;;;;;;;;;5092668;28;20443;-69
2023/03/14 10:49:27;;;;;;;1.10;0.90;;;;;;;;;;5093459;28;20672;-81
2023/03/14 10:51:54;;;;;;;1.73;0.80;;;;;;;;;;5092657;28;20439;-68
2023/03/14 10:54:23;;;;;;;1.87;0.83;;;;;;;;;;5092559;28;20859;-70
2023/03/14 10:56:57;;;;;;;3.67;1.00;;;;;;;;;;5092468;28;20444;-66
2023/03/14 10:59:26;;;;;;;2.67;1.23;;;;;;;;;;5092465;28;20970;-72
2023/03/14 11:01:56;;;;;;;2.57;0.90;;;;;;;;;;5092384;28;20449;-63
2023/03/14 11:04:27;;;;;;;1.27;0.70;;;;;;;;;;5092582;28;20539;-66
2023/03/14 11:06:58;;;;;;;0.80;0.77;;;;;;;;;;5092406;28;20479;-64
2023/03/14 11:09:28;;;;;;;2.40;1.00;;;;;;;;;;5096194;28;20455;-64
2023/03/14 11:11:56;;;;;;;1.43;0.83;;;;;;;;;;5096519;28;20504;-63
2023/03/14 11:14:29;;;;;;;3.33;1.17;;;;;;;;;;5096414;28;20539;-63
2023/03/14 11:16:58;;;;;;;3.83;0.90;;;;;;;;;;5096112;28;20476;-62
2023/03/14 11:19:31;;;;;;;2.40;1.00;;;;;;;;;;5096110;28;20549;-68
2023/03/14 11:22:01;;;;;;;1.13;1.00;;;;;;;;;;5096415;28;20453;-70
2023/03/14 11:24:49;;;;;;;2.03;1.20;;;;;;;;;;5096230;28;20457;-65
2023/03/14 11:27:18;;;;;;;1.60;0.93;;;;;;;;;;5091222;28;20461;-62
2023/03/14 11:29:51;;;;;;;1.93;0.70;;;;;;;;;;5095822;28;20474;-61
2023/03/14 11:32:21;;;;;;;1.47;0.90;;;;;;;;;;5095914;28;20453;-68
2023/03/14 11:34:52;;;;;;;3.33;1.07;;;;;;;;;;5096044;28;20456;-62
2023/03/14 11:37:23;;;;;;;1.13;0.80;;;;;;;;;;5095828;28;20448;-67
2023/03/14 11:39:55;;;;;;;1.47;0.70;;;;;;;;;;5095853;28;20546;-68
2023/03/14 11:42:23;;;;;;;1.93;1.00;;;;;;;;;;5095781;28;20447;-68
2023/03/14 11:44:51;;;;;;;1.93;1.07;;;;;;;;;;5095978;28;20459;-71
2023/03/14 11:47:21;;;;;;;2.30;0.90;;;;;;;;;;5095886;28;20448;-70
2023/03/14 11:49:50;;;;;;;0.90;0.73;;;;;;;;;;5095463;28;20493;-82
2023/03/14 11:52:22;;;;;;;2.03;0.70;;;;;;;;;;5095563;28;21071;-67
2023/03/14 11:54:50;;;;;;;1.10;0.80;;;;;;;;;;5095477;28;20455;-65
2023/03/14 11:57:19;;;;;;;2.17;0.83;;;;;;;;;;5095457;28;20447;-74
2023/03/14 11:59:48;;;;;;;3.20;0.90;;;;;;;;;;5095523;28;20456;-83
2023/03/14 12:02:21;;;;;;;1.30;1.03;;;;;;;;;;5095350;28;20946;-64
2023/03/14 12:04:52;;;;;;;0.93;0.80;;;;;;;;;;5095061;28;20458;-62
2023/03/14 12:07:22;;;;;;;0.90;0.80;;;;;;;;;;5095370;28;20463;-63
2023/03/14 12:09:50;;;;;;;1.80;0.90;;;;;;;;;;5094942;28;20480;-64
2023/03/14 12:12:20;;;;;;;2.80;1.00;;;;;;;;;;5095331;28;20463;-70
2023/03/14 12:14:48;;;;;;;3.13;1.20;;;;;;;;;;5095251;28;20539;-63
2023/03/14 12:17:21;;;;;;;1.60;0.90;;;;;;;;;;5095008;28;20833;-71
2023/03/14 12:19:49;;;;;;;1.40;1.07;;;;;;;;;;5094470;28;20456;-65
2023/03/14 12:22:23;;;;;;;2.73;0.70;;;;;;;;;;5095106;28;20535;-73
2023/03/14 12:24:51;;;;;;;1.83;1.27;;;;;;;;;;5095306;28;20534;-63
2023/03/14 12:27:33;;;;;;;1.33;0.90;;;;;;;;;;5094790;28;20448;-62
2023/03/14 12:30:00;;;;;;;2.80;2.60;;;;;;;;;;5094567;28;20471;-61
2023/03/14 12:32:29;;;;;;;1.70;1.43;;;;;;;;;;5094759;28;20453;-63
2023/03/14 12:34:56;;;;;;;3.80;3.50;;;;;;;;;;5094806;28;20508;-61
2023/03/14 12:37:27;;;;;;;2.13;2.00;;;;;;;;;;5094842;28;20471;-62
2023/03/14 12:40:17;;;;;;;1.77;1.50;;;;;;;;;;5094694;28;20890;-77
2023/03/14 12:42:46;;;;;;;1.47;1.00;;;;;;;;;;5090804;28;20510;-68
2023/03/14 12:45:23;;;;;;;1.10;1.00;;;;;;;;;;5095037;28;20451;-65
2023/03/14 12:48:02;;;;;;;2.03;1.10;;;;;;;;;;5094602;28;20535;-68
2023/03/14 12:50:33;;;;;;;2.30;1.10;;;;;;;;;;5094432;28;20468;-68
2023/03/14 12:53:19;;;;;;;1.10;0.90;;;;;;;;;;5094435;28;20455;-74
2023/03/14 12:55:47;;;;;;;1.20;1.10;;;;;;;;;;5094421;28;20452;-65
2023/03/14 12:58:16;;;;;;;1.00;0.90;;;;;;;;;;5094423;28;20455;-71
2023/03/14 13:00:43;;;;;;;1.30;1.03;;;;;;;;;;5094182;28;20458;-74
2023/03/14 13:03:22;;;;;;;1.10;1.00;;;;;;;;;;5094152;28;20452;-70
2023/03/14 13:05:55;;;;;;;2.03;1.20;;;;;;;;;;5094018;28;20478;-67
2023/03/14 13:08:39;;;;;;;3.37;1.10;;;;;;;;;;5094125;28;20445;-67
2023/03/14 13:11:07;;;;;;;1.40;1.07;;;;;;;;;;5093815;28;20479;-63
2023/03/14 13:13:36;;;;;;;2.90;1.00;;;;;;;;;;5094079;28;20543;-62
2023/03/14 13:16:04;;;;;;;1.50;0.70;;;;;;;;;;5094040;28;20948;-64
2023/03/14 13:18:35;;;;;;;1.10;0.70;;;;;;;;;;5093853;28;20476;-61
2023/03/14 13:21:04;;;;;;;1.70;0.60;;;;;;;;;;5093760;28;20466;-66
2023/03/14 13:23:32;;;;;;;1.33;0.70;;;;;;;;;;5093830;28;20452;-66
2023/03/14 13:26:00;;;;;;;3.90;0.67;;;;;;;;;;5093909;28;20481;-65
2023/03/14 13:28:29;;;;;;;3.13;1.00;;;;;;;;;;5093713;28;20773;-65
2023/03/14 13:30:56;;;;;;;0.90;0.60;;;;;;;;;;5092099;28;20582;-65
2023/03/14 13:33:24;;;;;;;1.03;0.70;;;;;;;;;;5093703;28;20470;-65
2023/03/14 13:35:56;;;;;;;1.03;0.70;;;;;;;;;;5093526;28;20451;-65
2023/03/14 13:38:24;;;;;;;2.40;0.80;;;;;;;;;;5093740;28;20448;-65
2023/03/14 13:40:52;;;;;;;0.80;0.70;;;;;;;;;;5093313;28;20539;-65
2023/03/14 13:43:20;;;;;;;1.27;1.10;;;;;;;;;;5093329;28;20455;-65
2023/03/14 13:45:50;;;;;;;1.20;1.03;;;;;;;;;;5093543;28;20874;-65
2023/03/14 13:48:18;;;;;;;3.03;1.03;;;;;;;;;;5093363;28;20451;-65
2023/03/14 13:50:51;;;;;;;1.57;0.80;;;;;;;;;;5093489;28;20567;-65
2023/03/14 13:53:19;;;;;;;0.87;0.80;;;;;;;;;;5093269;28;20456;-64
2023/03/14 13:55:46;;;;;;;3.00;0.90;;;;;;;;;;5093170;28;20804;-64
2023/03/14 13:58:21;;;;;;;0.93;0.77;;;;;;;;;;5093271;28;20475;-64
2023/03/14 14:00:55;;;;;;;1.17;0.90;;;;;;;;;;5093128;28;20534;-64
2023/03/14 14:03:22;;;;;;;2.67;2.47;;;;;;;;;;5093208;28;20799;-65
2023/03/14 14:05:49;;;;;;;5.13;0.90;;;;;;;;;;5093164;28;20447;-65
2023/03/14 14:08:16;;;;;;;1.63;1.07;;;;;;;;;;5093056;28;20448;-65
2023/03/14 14:10:44;;;;;;;3.70;1.23;;;;;;;;;;5093105;28;20482;-65
2023/03/14 14:13:12;;;;;;;1.33;0.70;;;;;;;;;;5093420;28;20628;-65
2023/03/14 14:15:43;;;;;;;1.10;0.80;;;;;;;;;;5093253;28;20479;-65
2023/03/14 14:18:13;;;;;;;1.70;1.60;;;;;;;;;;5092989;28;20559;-65
2023/03/14 14:20:42;;;;;;;1.00;0.80;;;;;;;;;;5092963;28;20448;-65
2023/03/14 14:23:12;;;;;;;0.80;0.70;;;;;;;;;;5092914;28;20455;-65
2023/03/14 14:25:39;;;;;;;3.03;1.03;;;;;;;;;;5092943;28;20445;-65
2023/03/14 14:28:18;;;;;;;1.10;0.70;;;;;;;;;;5092883;28;20486;-65
2023/03/14 14:30:45;;;;;;;1.73;0.80;;;;;;;;;;5092698;28;20882;-65
2023/03/14 14:33:14;;;;;;;0.67;0.60;;;;;;;;;;5092744;28;20447;-64
2023/03/14 14:35:41;;;;;;;1.67;0.80;;;;;;;;;;5092982;28;20484;-65
2023/03/14 14:38:13;;;;;;;1.03;0.80;;;;;;;;;;5092901;28;20806;-65
2023/03/14 14:40:45;;;;;;;1.37;0.80;;;;;;;;;;5092791;28;20456;-65
2023/03/14 14:43:16;;;;;;;0.70;0.70;;;;;;;;;;5096422;28;20538;-65
2023/03/14 14:45:46;;;;;;;0.70;0.67;;;;;;;;;;5096913;28;20455;-65
2023/03/14 14:48:14;;;;;;;0.60;0.60;;;;;;;;;;5096791;28;20939;-65
2023/03/14 14:50:50;;;;;;;2.77;0.60;;;;;;;;;;5096675;28;20502;-65